Time;durP1;ratioP1;P1;durP2;ratioP2;P2;SDS_P1;SDS_P2;PMS_P1;PMS_P2;Temp;Humidity;BMP_temperature;BMP_pressure;BME280_temperature;BME280_humidity;BME280_pressure;Samples;Min_cycle;Max_cycle;Signal;HPM_P1;HPM_P2
2023/09/21 00:01:23;;;;;;;2.42;1.95;;;;;;;19.24;66.64;99731.78;3593949;39;20052;-66
2023/09/21 00:03:49;;;;;;;4.22;2.05;;;;;;;19.27;67.26;99738.75;3592794;39;20711;-67
2023/09/21 00:06:17;;;;;;;3.25;1.80;;;;;;;19.04;66.74;99695.13;3593861;39;20055;-66
2023/09/21 00:08:47;;;;;;;2.38;1.77;;;;;;;19.29;67.07;99727.69;3593417;39;20422;-67
2023/09/21 00:11:14;;;;;;;3.92;1.70;;;;;;;19.28;67.25;99732.28;3594776;39;20055;-66
2023/09/21 00:13:40;;;;;;;3.80;1.88;;;;;;;19.28;66.43;99725.97;3595559;39;20060;-67
2023/09/21 00:16:18;;;;;;;14.93;11.82;;;;;;;19.27;66.82;99721.56;3584976;39;20501;-66
2023/09/21 00:18:44;;;;;;;5.28;3.20;;;;;;;19.26;67.33;99723.44;3593147;39;20066;-66
2023/09/21 00:21:12;;;;;;;3.75;2.13;;;;;;;18.99;67.23;99675.72;3583050;39;20068;-66
2023/09/21 00:23:38;;;;;;;2.25;1.77;;;;;;;19.21;67.36;99710.34;3597318;39;20139;-66
2023/09/21 00:26:04;;;;;;;3.08;1.90;;;;;;;19.21;67.66;99715.78;3595489;39;20522;-66
2023/09/21 00:28:30;;;;;;;2.17;1.67;;;;;;;19.19;67.32;99706.97;3585454;39;20081;-66
2023/09/21 00:30:58;;;;;;;3.30;1.80;;;;;;;19.19;66.86;99701.50;3594109;39;20383;-67
2023/09/21 00:33:26;;;;;;;2.95;2.05;;;;;;;19.17;67.44;99698.09;3594451;39;20479;-66
2023/09/21 00:35:53;;;;;;;2.90;2.00;;;;;;;19.12;67.45;99684.16;3594781;39;20047;-66
2023/09/21 00:38:20;;;;;;;2.13;1.77;;;;;;;19.16;66.77;99690.97;3598088;39;20502;-67
2023/09/21 00:40:47;;;;;;;1.95;1.60;;;;;;;19.18;66.99;99686.19;3593586;39;20047;-66
2023/09/21 00:43:25;;;;;;;3.05;2.03;;;;;;;19.19;66.82;99678.88;3593366;39;20043;-65
2023/09/21 00:45:54;;;;;;;3.55;1.83;;;;;;;19.20;67.02;99681.41;3595154;39;20053;-66
2023/09/21 00:48:23;;;;;;;2.22;2.00;;;;;;;19.17;67.07;99664.56;3595134;39;20121;-66
2023/09/21 00:50:54;;;;;;;2.42;1.70;;;;;;;19.21;66.94;99677.66;3594016;39;20323;-66
2023/09/21 00:53:28;;;;;;;2.03;1.83;;;;;;;19.19;66.35;99663.38;3593094;39;20382;-65
2023/09/21 00:56:04;;;;;;;3.42;1.88;;;;;;;19.27;66.38;99667.91;3594133;39;20059;-66
2023/09/21 00:58:33;;;;;;;3.08;1.92;;;;;;;19.33;65.74;99669.91;3593626;39;20057;-67
2023/09/21 01:01:00;;;;;;;2.35;1.67;;;;;;;19.35;65.51;99656.97;3593153;39;20052;-66
2023/09/21 01:03:27;;;;;;;1.63;1.40;;;;;;;19.38;65.18;99655.78;3587327;39;20380;-66
2023/09/21 01:05:54;;;;;;;3.25;1.90;;;;;;;19.41;64.82;99658.97;3593496;39;20056;-66
2023/09/21 01:08:28;;;;;;;3.03;1.67;;;;;;;19.44;64.37;99653.16;3593465;39;20379;-65
2023/09/21 01:10:57;;;;;;;2.45;1.70;;;;;;;19.52;63.99;99645.97;3593873;39;20051;-65
2023/09/21 01:13:25;;;;;;;4.50;2.10;;;;;;;19.56;63.27;99652.72;3597108;39;20059;-66
2023/09/21 01:16:03;;;;;;;3.42;1.50;;;;;;;19.61;63.56;99639.41;3595238;39;20051;-65
2023/09/21 01:18:29;;;;;;;2.97;1.67;;;;;;;19.66;63.01;99635.16;3593135;39;20068;-65
2023/09/21 01:20:59;;;;;;;2.30;1.60;;;;;;;19.73;62.55;99642.56;3594841;39;20267;-66
2023/09/21 01:23:55;;;;;;;2.45;1.65;;;;;;;19.76;62.37;99631.28;3593825;39;20055;-67
2023/09/21 01:26:21;;;;;;;2.75;1.50;;;;;;;19.79;62.00;99630.94;3596994;39;20371;-67
2023/09/21 01:28:47;;;;;;;3.40;1.70;;;;;;;19.86;61.91;99621.84;3595032;39;20067;-64
2023/09/21 01:31:18;;;;;;;1.98;1.60;;;;;;;19.94;61.56;99618.19;3595937;39;20063;-66
2023/09/21 01:33:44;;;;;;;2.15;1.58;;;;;;;20.00;60.81;99616.59;3593013;39;20052;-66
2023/09/21 01:36:12;;;;;;;2.35;1.55;;;;;;;20.04;60.54;99617.91;3594385;39;20067;-65
2023/09/21 01:38:44;;;;;;;4.18;1.50;;;;;;;20.03;61.04;99606.16;3593861;39;20168;-66
2023/09/21 01:41:15;;;;;;;2.58;1.48;;;;;;;20.08;59.96;99609.19;3585066;39;20068;-65
2023/09/21 01:43:42;;;;;;;2.38;1.55;;;;;;;20.10;60.79;99600.81;3593166;39;20051;-66
2023/09/21 01:46:08;;;;;;;3.72;1.80;;;;;;;20.09;60.52;99599.97;3592233;39;20364;-66
2023/09/21 01:48:34;;;;;;;2.55;1.55;;;;;;;20.09;60.60;99599.97;3582984;39;20099;-64
2023/09/21 01:51:00;;;;;;;2.05;1.60;;;;;;;20.11;60.09;99603.34;3593792;39;20051;-66
2023/09/21 01:53:26;;;;;;;2.53;1.70;;;;;;;20.12;60.10;99598.75;3589050;39;20383;-65
2023/09/21 01:55:52;;;;;;;2.25;1.50;;;;;;;20.09;60.44;99599.97;3592914;39;20051;-66
2023/09/21 01:58:23;;;;;;;2.67;1.58;;;;;;;20.06;60.63;99594.88;3595259;39;20059;-67
2023/09/21 02:00:51;;;;;;;1.60;1.48;;;;;;;20.05;60.45;99598.66;3596659;39;20047;-65
2023/09/21 02:03:22;;;;;;;2.03;1.60;;;;;;;20.03;60.08;99599.84;3592696;39;20063;-66
2023/09/21 02:05:47;;;;;;;2.80;1.60;;;;;;;20.02;60.44;99595.44;3592860;39;20048;-67
2023/09/21 02:08:17;;;;;;;2.33;1.70;;;;;;;19.92;60.75;99584.81;3596332;39;20278;-66
2023/09/21 02:10:43;;;;;;;3.40;1.70;;;;;;;19.84;60.51;99568.50;3592017;39;20165;-67
2023/09/21 02:13:09;;;;;;;1.40;1.30;;;;;;;19.94;60.60;99582.72;3591906;39;20664;-67
2023/09/21 02:15:38;;;;;;;3.45;1.55;;;;;;;19.92;60.56;99587.53;3584932;39;20387;-67
2023/09/21 02:18:07;;;;;;;1.38;1.27;;;;;;;19.74;60.81;99568.78;3594744;39;20055;-66
2023/09/21 02:20:35;;;;;;;1.77;1.67;;;;;;;19.86;60.80;99586.38;3593663;39;20059;-67
2023/09/21 02:23:02;;;;;;;1.83;1.70;;;;;;;19.86;60.76;99574.63;3594534;39;20058;-67
2023/09/21 02:25:34;;;;;;;3.10;1.50;;;;;;;19.85;60.92;99581.09;3592735;39;20051;-66
2023/09/21 02:28:11;;;;;;;2.55;1.73;;;;;;;19.86;60.57;99574.63;3592429;39;20048;-66
2023/09/21 02:30:43;;;;;;;2.00;1.67;;;;;;;19.83;61.03;99564.94;3593984;39;20063;-66
2023/09/21 02:33:09;;;;;;;2.08;1.42;;;;;;;19.83;61.08;99556.75;3591763;39;20677;-67
2023/09/21 02:35:41;;;;;;;4.35;1.48;;;;;;;19.75;61.08;99542.34;3590297;39;20055;-66
2023/09/21 02:38:12;;;;;;;1.80;1.63;;;;;;;19.86;60.93;99559.13;3591776;39;20068;-67
2023/09/21 02:40:39;;;;;;;2.55;1.45;;;;;;;19.85;60.98;99560.16;3591210;39;20406;-67
2023/09/21 02:43:09;;;;;;;3.03;1.45;;;;;;;19.84;60.85;99555.72;3591100;39;20094;-68
2023/09/21 02:45:37;;;;;;;1.75;1.30;;;;;;;19.86;61.14;99555.53;3584912;39;20039;-66
2023/09/21 02:48:03;;;;;;;1.40;1.30;;;;;;;19.86;60.93;99558.28;3592505;39;20073;-68
2023/09/21 02:50:31;;;;;;;3.53;1.75;;;;;;;19.86;61.02;99558.28;3591732;39;20063;-68
2023/09/21 02:53:04;;;;;;;2.58;1.38;;;;;;;19.74;61.13;99540.66;3589840;39;20070;-66
2023/09/21 02:55:30;;;;;;;4.53;1.60;;;;;;;19.83;60.72;99562.22;3591417;39;20060;-67
2023/09/21 02:58:05;;;;;;;2.30;1.35;;;;;;;19.84;61.02;99557.59;3594270;39;20059;-66
2023/09/21 03:00:37;;;;;;;3.25;1.42;;;;;;;19.79;60.90;99549.13;3594025;39;20095;-66
2023/09/21 03:03:04;;;;;;;2.55;1.50;;;;;;;19.82;60.96;99551.47;3591261;39;20128;-65
2023/09/21 03:05:33;;;;;;;1.95;1.60;;;;;;;19.79;61.64;99555.44;3595173;39;20102;-66
2023/09/21 03:08:04;;;;;;;7.97;1.63;;;;;;;19.78;61.04;99544.72;3585035;39;20121;-66
2023/09/21 03:10:29;;;;;;;1.63;1.30;;;;;;;19.78;61.47;99548.28;3593548;39;20294;-66
2023/09/21 03:12:55;;;;;;;2.10;1.60;;;;;;;19.79;61.42;99538.22;3594661;39;20059;-67
2023/09/21 03:15:22;;;;;;;4.00;1.80;;;;;;;19.80;61.10;99539.94;3594265;39;20468;-66
2023/09/21 03:17:54;;;;;;;2.58;1.58;;;;;;;19.80;61.56;99539.94;3594946;39;20140;-65
2023/09/21 03:20:34;;;;;;;4.03;1.70;;;;;;;19.81;61.20;99544.34;3585343;39;20425;-66
2023/09/21 03:23:05;;;;;;;1.63;1.52;;;;;;;19.80;61.27;99539.94;3594592;39;20063;-65
2023/09/21 03:25:40;;;;;;;1.77;1.52;;;;;;;19.66;61.52;99515.19;3594014;39;20051;-67
2023/09/21 03:28:15;;;;;;;2.40;1.58;;;;;;;19.78;61.92;99537.38;3593257;39;20063;-65
2023/09/21 03:30:43;;;;;;;1.67;1.58;;;;;;;19.78;61.48;99533.81;3596053;39;20060;-66
2023/09/21 03:33:10;;;;;;;1.75;1.65;;;;;;;19.74;62.04;99533.34;3595309;39;20144;-66
2023/09/21 03:35:37;;;;;;;4.72;1.80;;;;;;;19.73;61.80;99528.91;3595386;39;20067;-66
2023/09/21 03:38:06;;;;;;;2.60;1.60;;;;;;;19.73;61.84;99531.66;3594703;39;20051;-66
2023/09/21 03:40:33;;;;;;;2.03;1.55;;;;;;;19.74;61.82;99529.75;3595218;39;20051;-66
2023/09/21 03:42:59;;;;;;;1.60;1.30;;;;;;;19.74;61.72;99529.75;3592606;39;20101;-67
2023/09/21 03:45:26;;;;;;;1.60;1.35;;;;;;;19.77;62.11;99532.13;3595828;39;20058;-66
2023/09/21 03:47:53;;;;;;;1.73;1.45;;;;;;;19.76;62.14;99527.69;3591263;39;20054;-66
2023/09/21 03:50:19;;;;;;;3.95;1.90;;;;;;;19.77;61.98;99518.47;3595022;39;20059;-65
2023/09/21 03:52:47;;;;;;;2.28;1.70;;;;;;;19.79;61.50;99520.00;3595407;39;20364;-66
2023/09/21 03:55:16;;;;;;;2.15;1.60;;;;;;;19.82;61.22;99524.19;3593760;39;20056;-65
2023/09/21 03:57:46;;;;;;;4.00;1.88;;;;;;;19.77;61.82;99504.84;3594681;39;20056;-65
2023/09/21 04:00:35;;;;;;;2.28;1.60;;;;;;;19.82;61.63;99513.28;3595222;39;20052;-66
2023/09/21 04:03:10;;;;;;;3.47;1.70;;;;;;;19.87;61.60;99514.44;3592569;39;20141;-67
2023/09/21 04:05:39;;;;;;;1.98;1.48;;;;;;;19.82;62.18;99496.94;3595805;39;20052;-66
2023/09/21 04:08:06;;;;;;;3.58;1.52;;;;;;;19.89;61.48;99506.09;3593421;39;20062;-67
2023/09/21 04:10:33;;;;;;;2.53;1.50;;;;;;;19.78;61.79;99487.44;3594528;39;20067;-66
2023/09/21 04:12:59;;;;;;;1.88;1.40;;;;;;;19.41;61.75;99421.88;3594928;39;20056;-66
2023/09/21 04:15:28;;;;;;;2.72;1.80;;;;;;;19.92;61.52;99503.81;3592661;39;20078;-66
2023/09/21 04:17:57;;;;;;;1.73;1.50;;;;;;;19.97;62.08;99514.16;3594386;39;20386;-67
2023/09/21 04:20:23;;;;;;;1.98;1.77;;;;;;;20.03;61.47;99518.84;3598041;39;20052;-67
2023/09/21 04:22:52;;;;;;;3.25;1.70;;;;;;;20.01;61.74;99504.56;3593904;39;20055;-66
2023/09/21 04:25:18;;;;;;;2.03;1.60;;;;;;;20.02;61.51;99508.16;3595554;39;20064;-66
2023/09/21 04:27:47;;;;;;;2.47;1.75;;;;;;;20.04;62.35;99506.91;3595673;39;20052;-66
2023/09/21 04:30:21;;;;;;;2.78;1.70;;;;;;;20.03;62.19;99515.28;3597293;39;20301;-66
2023/09/21 04:32:48;;;;;;;3.20;1.58;;;;;;;19.92;62.35;99489.34;3593144;39;20063;-65
2023/09/21 04:35:19;;;;;;;3.33;1.60;;;;;;;20.04;62.11;99498.72;3592423;39;20084;-66
2023/09/21 04:37:48;;;;;;;3.17;1.80;;;;;;;20.01;61.78;99493.63;3597627;39;20055;-66
2023/09/21 04:40:14;;;;;;;4.15;1.73;;;;;;;20.08;62.06;99500.06;3593768;39;20056;-66
2023/09/21 04:42:45;;;;;;;2.75;1.70;;;;;;;20.07;62.08;99498.34;3595772;39;20061;-66
2023/09/21 04:45:13;;;;;;;3.10;1.80;;;;;;;20.08;62.50;99505.50;3597919;39;20082;-66
2023/09/21 04:47:43;;;;;;;1.92;1.70;;;;;;;20.08;61.86;99496.50;3592810;39;21275;-67
2023/09/21 04:50:14;;;;;;;3.00;1.80;;;;;;;20.06;62.59;99499.38;3592990;39;20435;-65
2023/09/21 04:52:40;;;;;;;2.40;1.40;;;;;;;20.05;63.94;99494.13;3587553;39;20515;-67
2023/09/21 04:55:09;;;;;;;2.67;1.75;;;;;;;19.99;64.04;99489.44;3594949;39;20704;-66
2023/09/21 04:57:38;;;;;;;3.25;1.85;;;;;;;19.85;64.15;99472.00;3588391;39;20311;-67
2023/09/21 05:00:09;;;;;;;3.05;1.65;;;;;;;19.99;64.24;99500.34;3595097;39;20067;-68
2023/09/21 05:02:35;;;;;;;2.42;1.40;;;;;;;19.98;63.94;99507.69;3592500;39;20087;-66
2023/09/21 05:05:01;;;;;;;2.63;1.70;;;;;;;19.96;64.56;99501.56;3594977;39;20051;-67
2023/09/21 05:07:27;;;;;;;2.40;1.73;;;;;;;19.95;64.69;99494.44;3593443;39;20043;-67
2023/09/21 05:09:52;;;;;;;4.55;2.00;;;;;;;19.93;65.22;99496.47;3592653;39;20050;-68
2023/09/21 05:12:21;;;;;;;1.85;1.50;;;;;;;19.92;65.33;99483.88;3591761;39;20294;-66
2023/09/21 05:14:48;;;;;;;5.05;1.92;;;;;;;19.90;65.83;99475.03;3593477;39;20065;-67
2023/09/21 05:17:15;;;;;;;3.17;1.80;;;;;;;19.90;64.94;99475.88;3592027;39;20055;-65
2023/09/21 05:19:41;;;;;;;3.28;1.60;;;;;;;19.85;65.54;99466.56;3593136;39;20051;-67
2023/09/21 05:22:09;;;;;;;2.80;1.80;;;;;;;19.91;65.27;99474.00;3595407;39;20411;-67
2023/09/21 05:24:36;;;;;;;2.28;1.88;;;;;;;;;;3591643;39;20062;-68
2023/09/21 05:27:02;;;;;;;3.85;1.92;;;;;;;19.97;64.82;99478.69;3593515;39;20378;-67
2023/09/21 05:29:28;;;;;;;2.80;2.05;;;;;;;20.00;65.18;99481.03;3583978;39;20056;-67
2023/09/21 05:31:54;;;;;;;4.40;1.95;;;;;;;20.01;65.21;99480.00;3593716;39;20044;-67
2023/09/21 05:34:20;;;;;;;2.40;1.77;;;;;;;20.01;64.54;99469.09;3594572;39;20139;-66
2023/09/21 05:36:50;;;;;;;4.30;1.80;;;;;;;20.05;64.44;99469.59;3593879;39;20044;-66
2023/09/21 05:39:16;;;;;;;2.00;1.77;;;;;;;20.14;64.23;99476.63;3594684;39;20048;-66
2023/09/21 05:41:44;;;;;;;3.25;1.67;;;;;;;20.15;64.53;99467.41;3595207;39;20043;-67
2023/09/21 05:44:09;;;;;;;1.95;1.60;;;;;;;20.15;64.54;99468.25;3592162;39;20385;-66
2023/09/21 05:46:35;;;;;;;4.85;2.10;;;;;;;20.17;65.00;99470.78;3581728;39;20093;-65
2023/09/21 05:49:03;;;;;;;3.63;2.10;;;;;;;20.16;64.81;99463.63;3592797;39;20129;-66
2023/09/21 05:51:29;;;;;;;2.00;1.80;;;;;;;20.21;64.43;99458.47;3593874;39;20133;-66
2023/09/21 05:53:55;;;;;;;2.33;1.63;;;;;;;20.24;64.41;99477.19;3592353;39;20051;-67
2023/09/21 05:56:21;;;;;;;2.72;1.90;;;;;;;20.22;64.77;99473.78;3595665;39;20298;-67
2023/09/21 05:58:46;;;;;;;1.95;1.70;;;;;;;20.23;65.59;99475.47;3591163;39;20059;-67
2023/09/21 06:01:15;;;;;;;4.43;2.05;;;;;;;20.21;65.82;99471.25;3593591;39;20067;-66
2023/09/21 06:03:41;;;;;;;2.95;1.90;;;;;;;20.17;66.54;99474.38;3585852;39;20354;-67
2023/09/21 06:06:07;;;;;;;3.90;1.85;;;;;;;20.09;66.71;99474.47;3592677;39;20067;-67
2023/09/21 06:08:37;;;;;;;3.30;2.03;;;;;;;20.01;67.61;99455.44;3593930;39;20053;-68
2023/09/21 06:11:04;;;;;;;3.47;2.10;;;;;;;20.02;68.21;99497.25;3593208;39;20183;-67
2023/09/21 06:13:30;;;;;;;2.53;1.90;;;;;;;19.90;68.22;99475.03;3591671;39;20437;-67
2023/09/21 06:15:56;;;;;;;1.92;1.77;;;;;;;19.79;69.49;99490.00;3590513;39;20047;-67
2023/09/21 06:18:22;;;;;;;2.38;2.00;;;;;;;19.61;70.21;99478.56;3591472;39;20102;-67
2023/09/21 06:20:48;;;;;;;4.13;2.20;;;;;;;19.54;72.72;99488.53;3591660;39;20383;-67
2023/09/21 06:23:17;;;;;;;3.97;2.00;;;;;;;19.46;72.65;99489.44;3591983;39;20071;-68
2023/09/21 06:25:43;;;;;;;4.10;2.20;;;;;;;19.35;74.09;99487.19;3594489;39;20584;-68
2023/09/21 06:28:09;;;;;;;4.60;2.20;;;;;;;19.27;74.84;99484.50;3590962;39;20062;-68
2023/09/21 06:30:34;;;;;;;2.25;1.90;;;;;;;19.19;75.63;99482.72;3592169;39;20052;-69
2023/09/21 06:33:01;;;;;;;3.28;1.80;;;;;;;19.12;76.37;99487.19;3592439;39;20135;-68
2023/09/21 06:35:27;;;;;;;4.47;2.45;;;;;;;18.79;76.57;99450.16;3592276;39;20047;-68
2023/09/21 06:37:55;;;;;;;3.13;2.10;;;;;;;19.05;77.44;99491.69;3589699;39;20044;-68
2023/09/21 06:40:22;;;;;;;2.55;2.15;;;;;;;19.02;77.96;99490.16;3593025;39;20295;-68
2023/09/21 06:42:48;;;;;;;2.97;2.25;;;;;;;18.99;78.28;99485.06;3593424;39;20089;-68
2023/09/21 06:45:13;;;;;;;2.58;2.33;;;;;;;18.96;78.59;99490.88;3592017;39;20055;-68
2023/09/21 06:47:39;;;;;;;3.58;2.30;;;;;;;18.94;79.08;99493.81;3592213;39;20069;-66
2023/09/21 06:50:10;;;;;;;5.45;2.13;;;;;;;18.92;80.68;99505.91;3590940;39;20078;-69
2023/09/21 06:52:37;;;;;;;2.42;1.73;;;;;;;18.83;80.33;99505.09;3594763;39;20043;-68
2023/09/21 06:55:05;;;;;;;7.38;2.30;;;;;;;18.83;81.50;99515.16;3594213;39;20513;-68
2023/09/21 06:57:34;;;;;;;4.32;2.20;;;;;;;18.71;81.72;99526.44;3595322;39;20052;-68
2023/09/21 07:00:01;;;;;;;3.88;2.60;;;;;;;18.61;84.38;99514.06;3591558;39;20048;-68
2023/09/21 07:02:30;;;;;;;3.25;2.53;;;;;;;18.49;85.37;99510.88;3593078;39;20055;-68
2023/09/21 07:04:55;;;;;;;3.47;2.65;;;;;;;18.42;86.31;99515.34;3593492;39;20055;-68
2023/09/21 07:07:21;;;;;;;4.78;2.60;;;;;;;18.38;87.23;99517.59;3591896;39;20347;-68
2023/09/21 07:09:47;;;;;;;3.63;2.50;;;;;;;18.28;87.08;99508.78;3593939;39;20068;-67
2023/09/21 07:12:14;;;;;;;3.30;2.53;;;;;;;18.21;87.96;99505.94;3594736;39;20074;-68
2023/09/21 07:14:40;;;;;;;3.92;2.67;;;;;;;18.19;89.85;99507.97;3592269;39;20116;-68
2023/09/21 07:17:06;;;;;;;5.97;2.90;;;;;;;18.13;89.53;99497.78;3595003;39;20054;-68
2023/09/21 07:19:34;;;;;;;4.22;2.65;;;;;;;18.14;90.38;99496.78;3590802;39;20071;-67
2023/09/21 07:22:01;;;;;;;6.18;2.70;;;;;;;18.13;91.32;99495.06;3597606;39;20051;-68
2023/09/21 07:24:26;;;;;;;3.40;3.05;;;;;;;18.16;92.67;99492.00;3597563;39;20401;-67
2023/09/21 07:26:53;;;;;;;3.95;2.70;;;;;;;18.18;92.44;99495.41;3591233;39;20093;-67
2023/09/21 07:29:20;;;;;;;6.00;3.10;;;;;;;18.20;92.27;99492.50;3593808;39;20048;-68
2023/09/21 07:31:45;;;;;;;5.68;3.00;;;;;;;18.22;93.23;99498.63;3592210;39;20322;-68
2023/09/21 07:34:11;;;;;;;5.25;2.75;;;;;;;18.16;93.52;99485.72;3591880;39;20048;-68
2023/09/21 07:36:38;;;;;;;3.80;3.05;;;;;;;18.23;93.49;99497.59;3593592;39;20433;-68
2023/09/21 07:39:10;;;;;;;5.00;2.85;;;;;;;18.22;93.46;99491.31;3592379;39;20050;-68
2023/09/21 07:41:36;;;;;;;5.38;2.63;;;;;;;18.24;93.20;99497.44;3592720;39;20055;-68
2023/09/21 07:44:08;;;;;;;4.55;2.60;;;;;;;18.28;92.28;99501.47;3595980;39;20051;-67
2023/09/21 07:46:36;;;;;;;4.50;2.80;;;;;;;18.24;92.80;99493.84;3595326;39;20060;-66
2023/09/21 07:49:04;;;;;;;7.18;3.03;;;;;;;18.33;93.29;99507.25;3593746;39;20340;-67
2023/09/21 07:51:31;;;;;;;3.40;2.47;;;;;;;18.33;91.72;99504.53;3588400;39;20059;-68
2023/09/21 07:53:57;;;;;;;3.13;2.75;;;;;;;18.36;92.51;99507.91;3593631;39;20060;-67
2023/09/21 07:56:23;;;;;;;5.72;2.63;;;;;;;18.37;92.46;99509.63;3586258;39;20055;-68
2023/09/21 07:58:49;;;;;;;3.63;2.80;;;;;;;18.37;92.68;99507.72;3598386;39;20397;-67
2023/09/21 08:01:14;;;;;;;3.60;2.55;;;;;;;18.37;91.53;99515.06;3592394;39;20070;-67
2023/09/21 08:03:40;;;;;;;4.25;3.08;;;;;;;18.39;91.89;99512.97;3594777;39;20413;-68
2023/09/21 08:06:05;;;;;;;5.18;2.97;;;;;;;18.35;92.03;99503.50;3593349;39;20055;-67
2023/09/21 08:08:31;;;;;;;4.78;2.88;;;;;;;18.41;92.67;99527.28;3594520;39;20140;-68
2023/09/21 08:10:56;;;;;;;4.05;2.80;;;;;;;18.40;93.02;99531.03;3588209;39;20310;-67
2023/09/21 08:13:26;;;;;;;2.97;2.65;;;;;;;18.23;93.17;99508.47;3594559;39;20059;-68
2023/09/21 08:15:55;;;;;;;4.85;2.80;;;;;;;18.41;93.20;99538.16;3590802;39;20052;-68
2023/09/21 08:18:21;;;;;;;5.35;3.40;;;;;;;18.39;93.54;99534.75;3594736;39;20417;-67
2023/09/21 08:20:47;;;;;;;3.42;2.80;;;;;;;18.38;93.21;99536.63;3592934;39;20067;-67
2023/09/21 08:23:14;;;;;;;6.05;3.05;;;;;;;18.34;92.89;99540.72;3595932;39;20048;-68
2023/09/21 08:25:39;;;;;;;3.00;2.70;;;;;;;18.28;92.91;99545.00;3594380;39;20105;-68
2023/09/21 08:28:07;;;;;;;5.53;3.20;;;;;;;18.26;93.35;99557.91;3595230;39;20370;-68
2023/09/21 08:30:33;;;;;;;2.83;2.63;;;;;;;18.20;93.42;99557.78;3593974;39;20111;-68
2023/09/21 08:32:59;;;;;;;4.78;2.80;;;;;;;18.20;93.42;99569.50;3595550;39;20056;-67
2023/09/21 08:35:26;;;;;;;3.90;2.80;;;;;;;18.19;94.64;99572.41;3591767;39;20106;-68
2023/09/21 08:37:52;;;;;;;3.35;2.65;;;;;;;18.14;93.40;99569.34;3592776;39;20449;-68
2023/09/21 08:40:22;;;;;;;2.85;2.65;;;;;;;18.10;93.51;99577.88;3595369;39;20051;-67
2023/09/21 08:42:53;;;;;;;4.03;2.70;;;;;;;18.07;93.30;99577.38;3590000;39;20062;-68
2023/09/21 08:45:22;;;;;;;3.63;2.20;;;;;;;18.02;93.92;99582.50;3592507;39;20137;-67
2023/09/21 08:47:49;;;;;;;3.97;2.25;;;;;;;18.01;94.45;99587.06;3596175;39;20105;-68
2023/09/21 08:50:15;;;;;;;3.65;2.50;;;;;;;17.97;93.58;99585.72;3595779;39;20054;-67
2023/09/21 08:52:48;;;;;;;3.97;2.60;;;;;;;17.92;93.71;99581.81;3594156;39;20055;-70
2023/09/21 08:55:14;;;;;;;2.90;2.67;;;;;;;17.82;93.49;99572.00;3594359;39;20148;-68
2023/09/21 08:57:41;;;;;;;2.20;2.00;;;;;;;17.88;94.96;99588.63;3593180;39;20129;-68
2023/09/21 09:00:08;;;;;;;4.22;2.40;;;;;;;17.70;94.49;99559.75;3591822;39;20059;-68
2023/09/21 09:02:37;;;;;;;2.85;2.38;;;;;;;17.81;94.41;99592.03;3591796;39;20058;-67
2023/09/21 09:05:08;;;;;;;3.10;2.15;;;;;;;17.76;94.24;99583.53;3593329;39;20411;-68
2023/09/21 09:07:42;;;;;;;2.28;2.08;;;;;;;17.75;94.12;99576.38;3593459;39;20052;-67
2023/09/21 09:10:11;;;;;;;;;;;;;;;17.70;93.66;99567.91;3595481;39;20373;-67
2023/09/21 09:12:39;;;;;;;3.35;2.10;;;;;;;17.71;92.97;99585.91;3591186;39;20280;-67
2023/09/21 09:15:08;;;;;;;3.97;2.53;;;;;;;17.69;93.31;99587.94;3591324;39;20134;-67
2023/09/21 09:17:36;;;;;;;2.92;2.20;;;;;;;17.64;94.06;99582.19;3594483;39;20075;-67
2023/09/21 09:20:05;;;;;;;3.67;2.30;;;;;;;17.69;94.08;99587.94;3593901;39;20078;-68
2023/09/21 09:22:38;;;;;;;3.40;2.00;;;;;;;17.72;93.54;99590.31;3594958;39;20104;-67
2023/09/21 09:25:06;;;;;;;1.83;1.73;;;;;;;17.70;92.95;99577.94;3592891;39;20299;-67
2023/09/21 09:27:33;;;;;;;4.25;1.73;;;;;;;17.68;92.40;99556.34;3593783;39;20703;-68
2023/09/21 09:29:59;;;;;;;4.07;1.90;;;;;;;17.65;92.36;99575.72;3592608;39;20459;-67
2023/09/21 09:32:30;;;;;;;1.52;1.42;;;;;;;17.64;91.77;99569.44;3593117;39;20051;-67
2023/09/21 09:34:57;;;;;;;1.98;1.45;;;;;;;17.68;93.28;99569.94;3595260;39;20048;-67
2023/09/21 09:37:22;;;;;;;1.70;1.60;;;;;;;17.72;92.80;99560.41;3591724;39;20133;-68
2023/09/21 09:39:48;;;;;;;3.13;1.60;;;;;;;17.72;92.87;99560.41;3595177;39;20314;-68
2023/09/21 09:42:13;;;;;;;2.30;1.85;;;;;;;17.69;93.63;99544.44;3592573;39;20062;-68
2023/09/21 09:44:45;;;;;;;3.03;1.92;;;;;;;17.83;93.39;99556.53;3592552;39;20474;-67
2023/09/21 09:47:14;;;;;;;3.15;2.00;;;;;;;17.87;93.71;99560.59;3593678;39;20051;-67
2023/09/21 09:49:46;;;;;;;1.98;1.85;;;;;;;17.94;94.55;99560.75;3592441;39;20059;-67
2023/09/21 09:52:18;;;;;;;2.45;2.25;;;;;;;17.99;94.83;99561.09;3593883;39;20054;-68
2023/09/21 09:54:48;;;;;;;2.70;2.40;;;;;;;17.99;93.78;99561.94;3593624;39;20047;-68
2023/09/21 09:57:15;;;;;;;3.15;2.50;;;;;;;18.07;95.57;99561.88;3591793;39;20052;-68
2023/09/21 09:59:42;;;;;;;4.88;2.65;;;;;;;17.95;96.96;99529.81;3591266;39;20055;-68
2023/09/21 10:02:14;;;;;;;10.25;7.35;;;;;;;18.20;96.15;99555.91;3586257;39;20052;-69
2023/09/21 10:04:41;;;;;;;8.95;5.75;;;;;;;18.26;96.95;99547.03;3591748;39;20060;-68
2023/09/21 10:07:08;;;;;;;5.15;4.25;;;;;;;18.31;96.54;99544.66;3593901;39;20352;-68
2023/09/21 10:09:34;;;;;;;3.88;3.30;;;;;;;18.36;97.18;99541.38;3590974;39;20414;-68
2023/09/21 10:12:04;;;;;;;4.70;2.80;;;;;;;18.39;96.82;99542.91;3590948;39;20055;-67
2023/09/21 10:14:36;;;;;;;5.97;4.28;;;;;;;18.42;97.27;99537.97;3593526;39;20105;-68
2023/09/21 10:17:05;;;;;;;6.88;3.67;;;;;;;18.49;97.96;99540.81;3594088;39;20051;-68
2023/09/21 10:19:38;;;;;;;5.15;3.55;;;;;;;18.50;97.37;99515.31;3591690;39;20067;-67
2023/09/21 10:22:26;;;;;;;7.85;3.80;;;;;;;18.42;97.61;99486.25;3592291;39;20048;-68
2023/09/21 10:24:58;;;;;;;5.82;3.00;;;;;;;18.72;96.89;99532.72;3593372;39;20083;-69
2023/09/21 10:27:29;;;;;;;4.15;2.85;;;;;;;18.81;96.70;99534.41;3595351;39;20054;-69
2023/09/21 10:30:09;;;;;;;3.95;2.83;;;;;;;18.90;96.59;99535.19;3592869;39;20422;-68
2023/09/21 10:32:49;;;;;;;3.15;2.65;;;;;;;18.99;96.57;99545.00;3591538;39;20437;-69
2023/09/21 10:35:42;;;;;;;3.83;2.65;;;;;;;19.06;96.38;99532.38;3592628;39;20329;-68
2023/09/21 10:38:16;;;;;;;4.07;2.50;;;;;;;19.08;95.32;99516.66;3592162;39;20059;-68
2023/09/21 10:40:42;;;;;;;2.15;1.95;;;;;;;18.95;94.59;99481.03;3593524;39;20048;-69
2023/09/21 10:43:36;;;;;;;3.97;2.10;;;;;;;19.16;92.78;99513.06;3593858;39;20136;-69
2023/09/21 10:46:03;;;;;;;4.15;1.90;;;;;;;19.20;93.45;99517.94;3594308;39;20077;-70
2023/09/21 10:48:30;;;;;;;2.45;1.80;;;;;;;18.69;91.45;99419.59;3590882;39;20092;-67
2023/09/21 10:50:57;;;;;;;2.85;2.00;;;;;;;19.37;90.62;99517.78;3592360;39;20044;-69
2023/09/21 10:53:23;;;;;;;2.28;1.77;;;;;;;19.39;89.47;99510.28;3585842;39;20383;-69
2023/09/21 10:55:49;;;;;;;3.75;1.80;;;;;;;19.42;89.24;99497.16;3583932;39;20064;-68
2023/09/21 10:58:18;;;;;;;1.83;1.50;;;;;;;19.45;88.70;99506.84;3593298;39;20047;-67
2023/09/21 11:00:43;;;;;;;1.45;1.35;;;;;;;19.48;87.73;99499.13;3591711;39;20043;-68
2023/09/21 11:03:13;;;;;;;1.95;1.70;;;;;;;19.50;87.64;99479.84;3590922;39;20086;-68
2023/09/21 11:05:39;;;;;;;2.05;1.65;;;;;;;19.55;87.33;99482.88;3595222;39;20048;-67
2023/09/21 11:08:06;;;;;;;2.78;1.77;;;;;;;19.62;87.00;99481.09;3594359;39;20051;-67
2023/09/21 11:10:33;;;;;;;2.33;2.08;;;;;;;19.66;85.94;99477.00;3592287;39;20052;-68
2023/09/21 11:12:59;;;;;;;1.92;1.50;;;;;;;19.71;86.29;99480.00;3594474;39;20054;-69
2023/09/21 11:15:26;;;;;;;3.28;1.88;;;;;;;19.77;86.37;99478.41;3593415;39;21373;-68
2023/09/21 11:17:52;;;;;;;1.60;1.50;;;;;;;19.81;86.58;99462.53;3594552;39;20051;-68
2023/09/21 11:20:18;;;;;;;1.75;1.65;;;;;;;19.85;86.65;99469.28;3592834;39;20055;-68
2023/09/21 11:22:46;;;;;;;4.03;1.48;;;;;;;19.84;85.07;99465.72;3594116;39;20044;-68
2023/09/21 11:25:14;;;;;;;2.10;1.58;;;;;;;19.75;84.18;99438.72;3594735;39;20063;-68
2023/09/21 11:27:41;;;;;;;2.83;1.48;;;;;;;19.89;84.74;99462.44;3594046;39;20066;-69
2023/09/21 11:30:11;;;;;;;1.58;1.33;;;;;;;19.86;83.65;99463.66;3595647;39;20054;-68
2023/09/21 11:32:53;;;;;;;1.42;1.33;;;;;;;19.86;83.67;99498.28;3597777;39;20059;-69
2023/09/21 11:35:21;;;;;;;3.97;1.30;;;;;;;19.79;83.63;99491.84;3594605;39;20043;-68
2023/09/21 11:37:50;;;;;;;2.42;1.40;;;;;;;19.54;83.57;99475.75;3593331;39;20070;-68
2023/09/21 11:40:21;;;;;;;1.60;1.45;;;;;;;19.53;84.05;99509.47;3593391;39;20059;-68